Time;durP1;ratioP1;P1;durP2;ratioP2;P2;SDS_P1;SDS_P2;PMS_P1;PMS_P2;Temp;Humidity;BMP_temperature;BMP_pressure;BME280_temperature;BME280_humidity;BME280_pressure;Samples;Min_cycle;Max_cycle;Signal;HPM_P1;HPM_P2
2023/05/30 00:00:28;;;;;;;14.00;5.33;;;;;;;17.68;100.00;101357.16;2108750;28;20213;-60
2023/05/30 00:01:29;;;;;;;11.97;5.00;;;;;;;17.66;100.00;101368.03;2112133;28;20213;-60
2023/05/30 00:02:29;;;;;;;15.37;5.37;;;;;;;16.99;100.00;101261.50;2113508;28;20301;-60
2023/05/30 00:03:29;;;;;;;17.13;4.90;;;;;;;17.57;100.00;101356.81;2113901;28;20632;-60
2023/05/30 00:04:30;;;;;;;13.27;6.10;;;;;;;17.58;100.00;101368.78;2105967;28;20293;-60
2023/05/30 00:05:30;;;;;;;18.57;5.27;;;;;;;17.59;100.00;101371.13;2111145;28;20204;-61
2023/05/30 00:06:31;;;;;;;22.17;5.90;;;;;;;17.46;100.00;101352.88;2112918;28;20213;-61
2023/05/30 00:07:31;;;;;;;14.20;5.17;;;;;;;17.42;100.00;101349.44;2109039;28;20198;-61
2023/05/30 00:08:32;;;;;;;19.57;5.77;;;;;;;17.58;100.00;101366.00;2105370;28;20657;-61
2023/05/30 00:09:33;;;;;;;14.53;5.63;;;;;;;17.58;100.00;101359.13;2106792;28;20632;-61
2023/05/30 00:10:33;;;;;;;21.33;6.10;;;;;;;17.62;100.00;101358.22;2113524;28;20817;-61
2023/05/30 00:11:34;;;;;;;15.67;5.23;;;;;;;17.64;100.00;101364.94;2113290;28;20720;-61
2023/05/30 00:12:35;;;;;;;14.93;4.97;;;;;;;17.66;100.00;101364.47;2113505;28;20268;-61
2023/05/30 00:13:35;;;;;;;15.50;5.37;;;;;;;17.68;100.00;101365.56;2106634;28;20652;-61
2023/05/30 00:14:36;;;;;;;13.47;5.20;;;;;;;17.68;100.00;101365.56;2105243;28;20870;-60
2023/05/30 00:15:37;;;;;;;15.83;5.60;;;;;;;17.65;100.00;101363.69;2108747;28;20585;-61
2023/05/30 00:16:38;;;;;;;18.63;6.30;;;;;;;17.61;100.00;101367.88;2112334;28;20481;-61
2023/05/30 00:17:39;;;;;;;13.30;5.33;;;;;;;17.02;100.00;101285.78;2112757;28;20174;-61
2023/05/30 00:18:40;;;;;;;20.60;5.70;;;;;;;17.55;100.00;101362.09;2106771;28;20419;-61
2023/05/30 00:19:40;;;;;;;9.47;5.70;;;;;;;17.58;100.00;101367.53;2113503;28;20220;-61
2023/05/30 00:20:44;;;;;;;17.53;6.10;;;;;;;17.50;100.00;101348.69;2109833;28;20919;-60
2023/05/30 00:21:45;;;;;;;13.73;5.87;;;;;;;17.54;100.00;101363.34;2112205;28;20205;-61
2023/05/30 00:22:46;;;;;;;16.50;5.57;;;;;;;17.53;100.00;101356.19;2107187;28;20913;-61
2023/05/30 00:23:47;;;;;;;17.87;5.87;;;;;;;17.60;100.00;101360.72;2110307;28;20649;-60
2023/05/30 00:24:49;;;;;;;12.47;5.50;;;;;;;17.59;100.00;101371.13;2109202;28;20188;-61
2023/05/30 00:25:49;;;;;;;13.90;5.70;;;;;;;17.57;100.00;101365.22;2109994;28;20731;-61
2023/05/30 00:26:50;;;;;;;20.47;6.30;;;;;;;17.57;100.00;101359.63;2112928;28;20429;-61
2023/05/30 00:27:51;;;;;;;16.30;6.07;;;;;;;17.58;100.00;101363.19;2113088;28;20257;-61
2023/05/30 00:28:51;;;;;;;10.27;5.97;;;;;;;17.38;100.00;101324.34;2113352;28;20181;-60
2023/05/30 00:29:51;;;;;;;14.20;5.60;;;;;;;17.59;100.00;101359.94;2108763;28;20289;-61
2023/05/30 00:30:52;;;;;;;13.03;6.00;;;;;;;17.61;100.00;101360.25;2110563;28;20220;-61
2023/05/30 00:31:52;;;;;;;17.90;5.40;;;;;;;17.58;100.00;101361.19;2112545;28;20200;-61
2023/05/30 00:32:54;;;;;;;14.87;5.57;;;;;;;17.54;100.00;101357.72;2113384;28;20302;-60
2023/05/30 00:33:54;;;;;;;14.20;5.07;;;;;;;17.51;100.00;101357.88;2109698;28;20574;-60
2023/05/30 00:34:55;;;;;;;14.53;5.60;;;;;;;17.50;100.00;101362.69;2106991;28;20508;-60
2023/05/30 00:35:55;;;;;;;12.73;4.90;;;;;;;17.03;100.00;101280.94;2113641;28;20189;-61
2023/05/30 00:36:56;;;;;;;11.17;4.73;;;;;;;17.55;100.00;101358.53;2112967;28;20541;-60
2023/05/30 00:37:56;;;;;;;11.53;5.20;;;;;;;17.55;100.00;101367.69;2105254;28;20671;-60
2023/05/30 00:38:56;;;;;;;11.73;5.40;;;;;;;17.52;100.00;101363.78;2112426;28;20194;-60
2023/05/30 00:39:57;;;;;;;11.60;5.53;;;;;;;16.94;100.00;101272.50;2113282;28;20194;-60
2023/05/30 00:40:57;;;;;;;15.60;5.53;;;;;;;17.46;100.00;101364.09;2108295;28;20223;-60
2023/05/30 00:41:58;;;;;;;12.07;5.50;;;;;;;17.46;100.00;101369.69;2104370;28;20210;-61
2023/05/30 00:42:58;;;;;;;16.60;5.60;;;;;;;17.48;100.00;101367.19;2109126;28;20199;-60
2023/05/30 00:43:58;;;;;;;12.17;5.20;;;;;;;17.48;100.00;101368.00;2112196;28;20177;-61
2023/05/30 00:44:59;;;;;;;14.40;5.17;;;;;;;17.48;100.00;101368.00;2104830;28;20162;-60
2023/05/30 00:46:01;;;;;;;16.97;5.67;;;;;;;17.05;100.00;101312.09;2111085;28;20180;-61
2023/05/30 00:47:01;;;;;;;14.10;5.40;;;;;;;17.27;100.00;101347.16;2105585;28;20198;-60
2023/05/30 00:48:04;;;;;;;18.03;5.63;;;;;;;17.43;100.00;101368.59;2111159;28;20931;-61
2023/05/30 00:49:04;;;;;;;12.77;5.30;;;;;;;17.36;100.00;101366.06;2108945;28;20200;-60
2023/05/30 00:50:07;;;;;;;13.63;5.03;;;;;;;17.39;100.00;101372.78;2105719;28;20543;-60
2023/05/30 00:51:11;;;;;;;12.67;5.47;;;;;;;17.41;100.00;101371.09;2112610;28;20256;-60
2023/05/30 00:52:12;;;;;;;12.63;5.43;;;;;;;17.06;100.00;101331.22;2111641;28;20892;-61
2023/05/30 00:53:15;;;;;;;15.07;5.67;;;;;;;17.37;100.00;101373.22;2107253;28;20420;-61
2023/05/30 00:54:15;;;;;;;13.63;5.20;;;;;;;16.99;100.00;101317.50;2114748;28;20182;-61
2023/05/30 00:55:16;;;;;;;11.87;5.40;;;;;;;17.40;100.00;101368.75;2114660;28;20416;-60
2023/05/30 00:56:17;;;;;;;14.13;4.97;;;;;;;17.42;100.00;101369.06;2114348;28;20186;-61
2023/05/30 00:57:17;;;;;;;16.57;6.57;;;;;;;17.38;100.00;101371.97;2113998;28;20479;-61
2023/05/30 00:58:20;;;;;;;15.57;5.27;;;;;;;17.35;100.00;101370.09;2114085;28;20662;-60
2023/05/30 00:59:21;;;;;;;14.53;4.93;;;;;;;17.33;100.00;101364.97;2111031;28;20269;-60
2023/05/30 01:00:24;;;;;;;10.97;5.17;;;;;;;17.41;100.00;101364.69;2111322;28;20458;-60
2023/05/30 01:01:24;;;;;;;13.60;4.73;;;;;;;16.88;100.00;101288.34;2111770;28;20229;-60
2023/05/30 01:02:25;;;;;;;15.17;5.03;;;;;;;17.41;100.00;101365.50;2106300;28;20424;-60
2023/05/30 01:03:32;;;;;;;11.77;4.60;;;;;;;17.43;100.00;101363.00;2106340;28;20187;-60
2023/05/30 01:04:32;;;;;;;18.43;5.63;;;;;;;16.47;100.00;101221.59;2106636;28;20265;-60
2023/05/30 01:05:33;;;;;;;16.20;5.50;;;;;;;17.36;100.00;101355.63;2114611;28;20563;-61
2023/05/30 01:06:37;;;;;;;14.67;5.00;;;;;;;17.41;100.00;101359.88;2114201;28;20280;-60
2023/05/30 01:07:41;;;;;;;18.50;5.23;;;;;;;17.38;100.00;101355.16;2114730;28;20198;-60
2023/05/30 01:08:41;;;;;;;14.03;5.33;;;;;;;17.40;100.00;101355.50;2114955;28;20438;-61
2023/05/30 01:09:42;;;;;;;18.53;5.20;;;;;;;17.37;100.00;101359.22;2114540;28;21039;-60
2023/05/30 01:10:42;;;;;;;21.43;5.43;;;;;;;17.34;100.00;101346.13;2114890;28;20243;-60
2023/05/30 01:11:52;;;;;;;16.97;4.80;;;;;;;16.76;100.00;101275.22;2114016;28;20197;-61
2023/05/30 01:12:52;;;;;;;16.57;4.73;;;;;;;17.31;100.00;101358.25;2114542;28;20159;-61
2023/05/30 01:14:18;;;;;;;16.03;5.00;;;;;;;17.30;100.00;101354.66;2113632;28;20856;-60
2023/05/30 01:15:36;;;;;;;17.97;4.70;;;;;;;17.28;100.00;101356.38;2108649;28;20559;-61
2023/05/30 01:16:45;;;;;;;20.10;4.97;;;;;;;17.27;100.00;101354.81;2110564;28;20450;-61
2023/05/30 01:17:52;;;;;;;14.97;4.63;;;;;;;17.25;100.00;101360.88;2113824;28;20484;-61
2023/05/30 01:19:17;;;;;;;14.47;4.30;;;;;;;17.22;100.00;101358.97;2113186;28;20536;-60
2023/05/30 01:20:22;;;;;;;12.67;4.20;;;;;;;17.15;100.00;101359.25;2107940;28;20802;-61
2023/05/30 01:21:24;;;;;;;16.87;4.93;;;;;;;17.11;100.00;101361.41;2107219;28;20608;-61
2023/05/30 01:22:50;;;;;;;12.50;4.17;;;;;;;17.04;100.00;101360.91;2110953;28;20451;-60
2023/05/30 01:24:30;;;;;;;14.13;4.33;;;;;;;17.03;100.00;101365.75;2114809;28;20443;-61
2023/05/30 01:25:48;;;;;;;12.97;5.43;;;;;;;17.02;100.00;101367.00;2106642;28;20513;-61
2023/05/30 01:27:24;;;;;;;14.50;5.23;;;;;;;16.97;100.00;101369.59;2110412;28;21014;-60
2023/05/30 01:28:28;;;;;;;14.33;5.03;;;;;;;16.75;100.00;101330.41;2106247;28;20433;-61
2023/05/30 01:29:31;;;;;;;10.73;4.77;;;;;;;16.96;100.00;101363.19;2106338;28;20501;-60
2023/05/30 01:30:33;;;;;;;11.07;5.00;;;;;;;16.40;100.00;101289.00;2106557;28;20449;-60
2023/05/30 01:31:34;;;;;;;10.67;5.10;;;;;;;16.84;100.00;101341.69;2113794;28;20440;-61
2023/05/30 01:32:35;;;;;;;15.53;5.00;;;;;;;16.92;100.00;101348.59;2114686;28;20484;-61
2023/05/30 01:33:36;;;;;;;15.23;5.50;;;;;;;16.75;100.00;101315.66;2114399;28;20197;-61
2023/05/30 01:34:37;;;;;;;31.57;5.40;;;;;;;16.95;100.00;101353.25;2112706;28;20173;-61
2023/05/30 01:35:37;;;;;;;16.47;5.50;;;;;;;17.01;100.00;101356.25;2105105;28;20279;-61
2023/05/30 01:36:38;;;;;;;23.83;5.40;;;;;;;16.98;100.00;101357.16;2114457;28;20422;-60
2023/05/30 01:37:38;;;;;;;14.23;5.27;;;;;;;16.99;100.00;101355.91;2107171;28;20717;-61
2023/05/30 01:38:38;;;;;;;10.90;4.53;;;;;;;16.99;100.00;101359.50;2112532;28;20550;-60
2023/05/30 01:39:39;;;;;;;17.37;4.87;;;;;;;17.00;100.00;101365.88;2113704;28;20655;-60
2023/05/30 01:40:48;;;;;;;13.27;4.60;;;;;;;16.99;100.00;101367.91;2113726;28;20240;-60
2023/05/30 01:42:11;;;;;;;12.23;4.67;;;;;;;17.00;100.00;101361.06;2109457;28;20629;-60
2023/05/30 01:43:34;;;;;;;10.83;4.97;;;;;;;17.01;100.00;101362.59;2108329;28;20437;-61
2023/05/30 01:44:49;;;;;;;14.63;5.23;;;;;;;16.31;100.00;101261.72;2106488;28;20422;-60
2023/05/30 01:45:55;;;;;;;15.77;5.93;;;;;;;16.99;100.00;101367.91;2113885;28;20521;-60
2023/05/30 01:47:07;;;;;;;8.63;4.93;;;;;;;16.97;100.00;101366.78;2114336;28;20471;-60
2023/05/30 01:48:12;;;;;;;14.87;4.90;;;;;;;16.69;100.00;101323.06;2106350;28;20936;-60
2023/05/30 01:49:22;;;;;;;12.83;5.07;;;;;;;16.57;100.00;101320.38;2114062;28;20510;-60
2023/05/30 01:50:29;;;;;;;14.23;5.20;;;;;;;16.98;100.00;101371.16;2114437;28;20522;-62
2023/05/30 01:51:36;;;;;;;12.37;5.20;;;;;;;16.98;100.00;101373.94;2112151;28;20440;-60
2023/05/30 01:52:41;;;;;;;12.10;4.63;;;;;;;17.00;100.00;101363.09;2114496;28;20475;-60
2023/05/30 01:53:50;;;;;;;14.13;5.20;;;;;;;16.99;100.00;101367.91;2107481;28;20480;-61
2023/05/30 01:54:58;;;;;;;17.90;5.47;;;;;;;16.99;100.00;101367.09;2112371;28;20468;-61
2023/05/30 01:56:00;;;;;;;16.67;5.40;;;;;;;16.95;100.00;101361.66;2114064;28;20459;-60
2023/05/30 01:57:11;;;;;;;14.93;5.47;;;;;;;16.62;100.00;101319.78;2108237;28;20964;-61
2023/05/30 01:58:15;;;;;;;16.50;5.57;;;;;;;16.98;100.00;101366.34;2111919;28;20457;-60
2023/05/30 01:59:17;;;;;;;15.70;5.73;;;;;;;16.99;100.00;101369.91;2109148;28;20827;-60
2023/05/30 02:00:18;;;;;;;12.83;5.90;;;;;;;16.89;100.00;101345.91;2105917;28;20438;-61
2023/05/30 02:01:21;;;;;;;16.23;5.70;;;;;;;16.23;100.00;101248.44;2106758;28;21008;-60
2023/05/30 02:02:21;;;;;;;14.13;5.83;;;;;;;16.76;100.00;101328.41;2107998;28;20425;-59
2023/05/30 02:03:25;;;;;;;21.07;5.53;;;;;;;16.98;100.00;101362.75;2113032;28;20506;-61
2023/05/30 02:04:26;;;;;;;19.50;5.90;;;;;;;16.94;100.00;101362.09;2106502;28;20206;-60
2023/05/30 02:05:26;;;;;;;13.93;5.37;;;;;;;16.92;100.00;101367.38;2114344;28;20405;-61
2023/05/30 02:06:27;;;;;;;18.80;5.63;;;;;;;16.86;100.00;101366.41;2113672;28;20206;-60
2023/05/30 02:07:28;;;;;;;16.37;5.40;;;;;;;16.82;100.00;101357.38;2114354;28;20638;-60
2023/05/30 02:08:29;;;;;;;13.63;5.53;;;;;;;16.89;100.00;101369.09;2114446;28;20198;-61
2023/05/30 02:09:29;;;;;;;15.97;5.20;;;;;;;16.90;100.00;101369.88;2110091;28;20440;-60
2023/05/30 02:10:29;;;;;;;16.30;5.53;;;;;;;16.89;100.00;101371.09;2108887;28;20201;-60
2023/05/30 02:11:30;;;;;;;16.87;5.53;;;;;;;16.90;100.00;101370.63;2113856;28;20196;-60
2023/05/30 02:12:31;;;;;;;13.40;5.80;;;;;;;16.89;100.00;101371.88;2114177;28;20589;-61
2023/05/30 02:13:32;;;;;;;15.27;5.57;;;;;;;16.89;100.00;101371.88;2114458;28;20179;-61
2023/05/30 02:14:33;;;;;;;20.73;6.43;;;;;;;16.85;100.00;101371.22;2105551;28;20198;-61
2023/05/30 02:15:33;;;;;;;20.07;5.80;;;;;;;16.86;100.00;101377.63;2112290;28;21039;-61
2023/05/30 02:16:34;;;;;;;20.87;5.40;;;;;;;16.85;100.00;101374.03;2113747;28;20746;-61
2023/05/30 02:17:35;;;;;;;19.20;5.87;;;;;;;16.11;100.00;101266.88;2113875;28;20184;-61
2023/05/30 02:18:36;;;;;;;18.47;5.33;;;;;;;16.83;100.00;101373.72;2114195;28;20195;-61
2023/05/30 02:19:37;;;;;;;17.17;6.03;;;;;;;16.85;100.00;101373.25;2111839;28;20424;-61
2023/05/30 02:20:37;;;;;;;17.50;5.50;;;;;;;16.74;100.00;101354.06;2106831;28;20178;-60
2023/05/30 02:21:38;;;;;;;19.83;5.90;;;;;;;16.30;100.00;101285.31;2113785;28;20289;-60
2023/05/30 02:22:39;;;;;;;16.53;5.47;;;;;;;16.90;100.00;101376.25;2106339;28;20612;-60
2023/05/30 02:23:39;;;;;;;14.03;5.00;;;;;;;16.88;100.00;101368.78;2113101;28;20454;-61
2023/05/30 02:24:40;;;;;;;12.23;5.33;;;;;;;16.88;100.00;101373.13;2107961;28;20215;-61
2023/05/30 02:25:40;;;;;;;17.63;5.87;;;;;;;16.88;100.00;101374.38;2105365;28;20180;-60
2023/05/30 02:26:40;;;;;;;13.67;5.23;;;;;;;16.89;100.00;101369.09;2111019;28;20329;-60
2023/05/30 02:27:42;;;;;;;10.80;5.40;;;;;;;16.90;100.00;101375.47;2114064;28;20175;-61
2023/05/30 02:28:42;;;;;;;18.90;5.30;;;;;;;15.90;100.00;101222.91;2112807;28;20166;-61
2023/05/30 02:29:42;;;;;;;10.40;4.73;;;;;;;16.91;100.00;101380.59;2106947;28;20466;-60
2023/05/30 02:30:43;;;;;;;14.07;5.23;;;;;;;16.92;100.00;101370.97;2113972;28;20691;-60
2023/05/30 02:31:44;;;;;;;14.30;5.67;;;;;;;16.94;100.00;101378.91;2111608;28;20633;-61
2023/05/30 02:32:44;;;;;;;11.57;5.40;;;;;;;16.91;100.00;101377.78;2108008;28;20191;-61
2023/05/30 02:33:44;;;;;;;13.47;5.30;;;;;;;16.91;100.00;101379.81;2110625;28;20255;-61
2023/05/30 02:35:04;;;;;;;18.03;5.40;;;;;;;16.89;100.00;101376.69;2113812;28;20674;-60
2023/05/30 02:36:05;;;;;;;13.03;5.40;;;;;;;16.38;100.00;101297.03;2114024;28;20653;-61
2023/05/30 02:37:05;;;;;;;11.60;5.30;;;;;;;16.88;100.00;101375.13;2109194;28;21013;-61
2023/05/30 02:38:06;;;;;;;16.80;5.53;;;;;;;16.88;100.00;101378.72;2108832;28;20505;-60
2023/05/30 02:39:08;;;;;;;12.77;5.50;;;;;;;16.86;100.00;101383.22;2112512;28;20436;-60
2023/05/30 02:40:11;;;;;;;13.07;5.43;;;;;;;16.89;100.00;101383.06;2112869;28;20234;-60
2023/05/30 02:41:12;;;;;;;17.57;5.47;;;;;;;16.37;100.00;101313.06;2105749;28;20488;-60
2023/05/30 02:42:12;;;;;;;19.10;5.97;;;;;;;16.67;100.00;101373.13;2104892;28;20452;-60
2023/05/30 02:43:13;;;;;;;15.83;5.57;;;;;;;16.85;100.00;101384.47;2112688;28;20245;-61
2023/05/30 02:44:13;;;;;;;16.20;6.10;;;;;;;16.87;100.00;101387.56;2107679;28;20194;-60
2023/05/30 02:45:13;;;;;;;14.60;5.47;;;;;;;16.88;100.00;101386.34;2105407;28;20282;-61
2023/05/30 02:46:14;;;;;;;17.77;5.33;;;;;;;16.90;100.00;101386.66;2105894;28;20189;-61
2023/05/30 02:47:14;;;;;;;13.70;4.83;;;;;;;16.92;100.00;101390.56;2111499;28;20873;-61
2023/05/30 02:48:15;;;;;;;17.53;4.80;;;;;;;16.94;100.00;101392.91;2106813;28;20164;-60
2023/05/30 02:49:15;;;;;;;19.00;5.50;;;;;;;16.95;100.00;101392.44;2113778;28;20184;-60
2023/05/30 02:50:16;;;;;;;15.13;5.23;;;;;;;16.95;100.00;101398.03;2105245;28;20179;-61
2023/05/30 02:51:16;;;;;;;18.83;5.50;;;;;;;16.76;100.00;101371.16;2112640;28;20184;-60
2023/05/30 02:52:19;;;;;;;19.13;5.17;;;;;;;16.93;100.00;101394.13;2107036;28;20213;-60
2023/05/30 02:53:20;;;;;;;14.83;5.23;;;;;;;16.93;100.00;101389.34;2111210;28;20312;-61
2023/05/30 02:54:20;;;;;;;12.77;5.30;;;;;;;16.94;100.00;101392.91;2109397;28;20448;-60
2023/05/30 02:55:21;;;;;;;25.57;6.73;;;;;;;16.67;100.00;101359.13;2111850;28;20443;-61
2023/05/30 02:56:25;;;;;;;20.87;6.40;;;;;;;16.89;100.00;101396.28;2112526;28;20165;-60
2023/05/30 02:57:25;;;;;;;23.80;5.47;;;;;;;16.84;100.00;101400.47;2113124;28;20628;-60
2023/05/30 02:58:26;;;;;;;28.27;5.83;;;;;;;16.81;100.00;101403.41;2113518;28;20412;-60
2023/05/30 02:59:26;;;;;;;17.40;6.10;;;;;;;16.66;100.00;101379.97;2105991;28;20174;-60
2023/05/30 03:00:27;;;;;;;22.63;6.00;;;;;;;16.73;100.00;101402.88;2112708;28;20184;-60
2023/05/30 03:01:27;;;;;;;16.60;5.80;;;;;;;16.68;100.00;101405.47;2113104;28;20295;-61
2023/05/30 03:02:27;;;;;;;20.07;5.73;;;;;;;16.44;100.00;101370.78;2113006;28;20242;-60
2023/05/30 03:03:29;;;;;;;17.53;5.33;;;;;;;16.71;100.00;101404.56;2110196;28;20260;-60
2023/05/30 03:04:29;;;;;;;18.73;6.07;;;;;;;16.68;100.00;101388.69;2108080;28;20228;-60
2023/05/30 03:05:30;;;;;;;18.20;5.47;;;;;;;16.68;100.00;101394.28;2113526;28;20897;-60
2023/05/30 03:06:31;;;;;;;10.27;5.53;;;;;;;16.36;100.00;101336.66;2113019;28;20182;-61
2023/05/30 03:07:32;;;;;;;20.07;5.57;;;;;;;16.79;100.00;101403.84;2114196;28;20189;-60
2023/05/30 03:08:32;;;;;;;14.83;5.87;;;;;;;16.81;100.00;101397.81;2113966;28;20458;-60
2023/05/30 03:09:33;;;;;;;11.43;5.40;;;;;;;16.84;100.00;101402.47;2107187;28;20639;-60
2023/05/30 03:10:33;;;;;;;12.27;4.97;;;;;;;16.85;100.00;101398.47;2105147;28;20250;-60
2023/05/30 03:11:34;;;;;;;20.40;5.47;;;;;;;16.68;100.00;101361.50;2106820;28;20229;-61
2023/05/30 03:12:34;;;;;;;11.33;5.00;;;;;;;16.91;100.00;101396.63;2113721;28;20200;-62
2023/05/30 03:13:35;;;;;;;15.60;5.80;;;;;;;16.92;100.00;101392.59;2111586;28;20180;-60
2023/05/30 03:14:35;;;;;;;16.77;5.57;;;;;;;16.64;100.00;101354.47;2105882;28;20235;-60
2023/05/30 03:15:35;;;;;;;14.20;5.17;;;;;;;16.93;100.00;101391.34;2113691;28;20209;-60
2023/05/30 03:16:36;;;;;;;14.73;4.63;;;;;;;16.90;100.00;101387.44;2107626;28;20192;-61
2023/05/30 03:17:38;;;;;;;14.93;5.00;;;;;;;16.91;100.00;101391.03;2113702;28;20704;-61
2023/05/30 03:18:39;;;;;;;13.33;4.90;;;;;;;16.85;100.00;101388.03;2113877;28;20193;-60
2023/05/30 03:19:40;;;;;;;13.53;5.30;;;;;;;16.82;100.00;101382.56;2113572;28;20944;-61
2023/05/30 03:20:40;;;;;;;21.33;5.07;;;;;;;16.52;100.00;101348.94;2113872;28;20863;-61
2023/05/30 03:21:42;;;;;;;13.03;5.10;;;;;;;16.54;100.00;101348.00;2110421;28;20239;-61
2023/05/30 03:22:43;;;;;;;13.57;5.13;;;;;;;16.75;100.00;101386.41;2107052;28;20181;-60
2023/05/30 03:23:43;;;;;;;21.13;5.00;;;;;;;16.77;100.00;101388.75;2113506;28;20941;-61
2023/05/30 03:24:43;;;;;;;13.60;5.33;;;;;;;16.80;100.00;101393.44;2105871;28;20226;-60
2023/05/30 03:25:44;;;;;;;10.93;4.83;;;;;;;16.36;100.00;101330.28;2105041;28;20217;-61
2023/05/30 03:26:44;;;;;;;15.17;4.87;;;;;;;16.77;100.00;101397.94;2110927;28;20540;-61
2023/05/30 03:27:50;;;;;;;7.63;4.73;;;;;;;16.81;100.00;101397.81;2108720;28;20192;-61
2023/05/30 03:28:50;;;;;;;8.33;4.53;;;;;;;16.81;100.00;101395.00;2105407;28;20237;-61
2023/05/30 03:29:52;;;;;;;16.97;5.10;;;;;;;16.83;100.00;101394.56;2108643;28;20440;-60
2023/05/30 03:30:55;;;;;;;11.43;5.03;;;;;;;16.83;100.00;101397.34;2113676;28;20260;-60
2023/05/30 03:31:56;;;;;;;9.57;4.67;;;;;;;16.80;100.00;101399.81;2112974;28;20461;-60
2023/05/30 03:32:56;;;;;;;11.77;4.20;;;;;;;16.83;100.00;101398.13;2113881;28;20422;-60
2023/05/30 03:33:57;;;;;;;10.33;4.77;;;;;;;16.83;100.00;101398.13;2113861;28;20172;-61
2023/05/30 03:34:57;;;;;;;10.57;4.80;;;;;;;16.85;100.00;101396.41;2112275;28;20190;-61
2023/05/30 03:35:58;;;;;;;15.13;4.77;;;;;;;16.88;100.00;101400.31;2113385;28;20254;-61
2023/05/30 03:36:58;;;;;;;10.90;4.80;;;;;;;16.88;100.00;101395.53;2112411;28;20202;-61
2023/05/30 03:37:58;;;;;;;15.17;4.70;;;;;;;16.92;100.00;101398.97;2113375;28;20712;-61
2023/05/30 03:38:59;;;;;;;14.80;4.67;;;;;;;16.91;100.00;101393.81;2110930;28;20188;-60
2023/05/30 03:39:59;;;;;;;14.67;5.23;;;;;;;16.95;100.00;101402.88;2106715;28;20182;-61
2023/05/30 03:41:00;;;;;;;14.93;5.37;;;;;;;16.98;100.00;101395.59;2113584;28;20709;-60
2023/05/30 03:42:01;;;;;;;13.37;4.70;;;;;;;17.00;100.00;101402.28;2113588;28;20178;-60
2023/05/30 03:43:01;;;;;;;13.07;4.70;;;;;;;16.52;100.00;101326.56;2113715;28;20203;-60
2023/05/30 03:44:02;;;;;;;11.77;4.40;;;;;;;17.02;100.00;101403.41;2113518;28;20444;-61
2023/05/30 03:45:02;;;;;;;18.00;5.27;;;;;;;17.06;100.00;101408.84;2113206;28;20198;-61
2023/05/30 03:46:03;;;;;;;16.83;4.80;;;;;;;16.57;100.00;101329.53;2109131;28;20193;-60
2023/05/30 03:47:04;;;;;;;14.83;4.50;;;;;;;17.08;100.00;101412.75;2105966;28;20199;-62
2023/05/30 03:48:05;;;;;;;11.93;4.50;;;;;;;17.13;100.00;101411.38;2104659;28;20184;-63
2023/05/30 03:49:05;;;;;;;13.20;4.70;;;;;;;17.14;100.00;101402.53;2105490;28;20891;-59
2023/05/30 03:50:06;;;;;;;8.30;4.73;;;;;;;16.74;100.00;101340.06;2105429;28;20174;-60
2023/05/30 03:51:06;;;;;;;15.50;4.97;;;;;;;17.12;100.00;101402.19;2113544;28;20623;-60
2023/05/30 03:52:07;;;;;;;13.67;4.57;;;;;;;17.11;100.00;101395.03;2112951;28;20260;-59
2023/05/30 03:53:07;;;;;;;13.43;4.53;;;;;;;16.41;100.00;101287.78;2107872;28;20228;-57
2023/05/30 03:54:08;;;;;;;10.33;4.63;;;;;;;17.17;100.00;101407.19;2109835;28;20193;-59
2023/05/30 03:55:08;;;;;;;11.67;4.50;;;;;;;17.17;100.00;101404.38;2114785;28;20170;-60
2023/05/30 03:56:09;;;;;;;14.37;4.63;;;;;;;17.37;100.00;101415.25;2114877;28;20169;-59
2023/05/30 03:57:10;;;;;;;16.73;4.37;;;;;;;17.59;100.00;101416.00;2114797;28;20188;-59
2023/05/30 03:58:10;;;;;;;8.80;4.27;;;;;;;17.72;100.00;101413.06;2114448;28;20180;-58
2023/05/30 03:59:11;;;;;;;12.90;4.33;;;;;;;17.83;100.00;101419.81;2114639;28;20176;-59
2023/05/30 04:00:12;;;;;;;8.13;4.13;;;;;;;17.67;100.00;101353.56;2114727;28;20172;-58
2023/05/30 04:01:13;;;;;;;11.17;3.83;;;;;;;18.37;100.00;101414.31;2109061;28;20347;-61
2023/05/30 04:02:13;;;;;;;9.87;3.70;;;;;;;18.71;100.00;101422.44;2113950;28;20450;-59
2023/05/30 04:03:19;;;;;;;12.90;3.43;;;;;;;19.09;100.00;101419.88;2113777;28;20173;-61
2023/05/30 04:04:19;;;;;;;7.23;3.60;;;;;;;19.44;100.00;101414.66;2114606;28;20424;-61
2023/05/30 04:05:20;;;;;;;24.17;3.50;;;;;;;18.66;100.00;101271.47;2113037;28;20436;-60
2023/05/30 04:06:21;;;;;;;11.17;3.33;;;;;;;19.66;100.00;101404.72;2120082;28;20211;-60
2023/05/30 04:07:24;;;;;;;13.87;3.50;;;;;;;19.96;100.00;101403.59;2111425;28;20428;-60
2023/05/30 04:08:25;;;;;;;10.23;3.00;;;;;;;20.45;100.00;101400.31;2113990;28;20269;-63
2023/05/30 04:09:25;;;;;;;9.47;2.63;;;;;;;20.73;100.00;101393.22;2114439;28;20414;-65
2023/05/30 04:10:26;;;;;;;19.37;2.90;;;;;;;20.88;100.00;101400.41;2114543;28;20446;-64
2023/05/30 04:11:26;;;;;;;10.93;3.30;;;;;;;20.86;100.00;101382.41;2113570;28;20180;-64
2023/05/30 04:12:27;;;;;;;11.33;2.83;;;;;;;21.08;100.00;101382.88;2114507;28;20536;-64
2023/05/30 04:13:27;;;;;;;6.97;2.97;;;;;;;21.26;100.00;101383.44;2107055;28;20665;-64
2023/05/30 04:14:27;;;;;;;7.17;2.80;;;;;;;21.27;100.00;101382.16;2105929;28;20163;-64
2023/05/30 04:15:28;;;;;;;8.93;2.90;;;;;;;21.39;100.00;101380.31;2109357;28;20279;-61
2023/05/30 04:16:28;;;;;;;9.17;3.03;;;;;;;21.38;100.00;101384.38;2113539;28;20182;-59
2023/05/30 04:17:30;;;;;;;15.87;3.13;;;;;;;21.40;100.00;101379.03;2114184;28;20210;-59
2023/05/30 04:18:31;;;;;;;9.30;2.97;;;;;;;21.57;100.00;101378.03;2114192;28;20262;-60
2023/05/30 04:19:31;;;;;;;11.70;3.10;;;;;;;21.65;100.00;101381.97;2106040;28;20424;-62
2023/05/30 04:20:32;;;;;;;8.80;3.10;;;;;;;21.73;100.00;101390.84;2113399;28;20235;-60
2023/05/30 04:21:32;;;;;;;11.43;3.10;;;;;;;21.78;100.00;101392.97;2113271;28;20202;-61
2023/05/30 04:22:33;;;;;;;4.80;2.97;;;;;;;21.73;100.00;101394.44;2114401;28;20643;-61
2023/05/30 04:23:33;;;;;;;15.30;3.87;;;;;;;21.74;100.00;101373.44;2115127;28;20580;-61
2023/05/30 04:24:33;;;;;;;8.77;2.90;;;;;;;21.85;100.00;101384.09;2115530;28;20663;-60
2023/05/30 04:25:35;;;;;;;13.00;3.10;;;;;;;21.25;100.00;101296.53;2116286;28;20179;-58
2023/05/30 04:26:36;;;;;;;7.33;2.70;;;;;;;21.72;100.00;101390.06;2116209;28;20209;-58
2023/05/30 04:27:36;;;;;;;9.53;2.90;;;;;;;21.82;100.00;101382.25;2116164;28;20178;-58
2023/05/30 04:28:42;;;;;;;6.27;2.90;;;;;;;21.92;100.00;101386.50;2116225;28;20178;-58
2023/05/30 04:29:42;;;;;;;9.63;3.17;;;;;;;21.96;100.00;101381.44;2116138;28;20190;-58
2023/05/30 04:30:48;;;;;;;11.37;3.70;;;;;;;21.95;100.00;101379.88;2115588;28;20243;-58
2023/05/30 04:31:48;;;;;;;11.47;3.87;;;;;;;21.98;100.00;101378.88;2114856;28;20579;-64
2023/05/30 04:32:49;;;;;;;9.50;3.87;;;;;;;21.86;100.00;101374.38;2114523;28;20230;-65
2023/05/30 04:33:50;;;;;;;11.53;3.80;;;;;;;21.64;100.00;101382.50;2113094;28;20182;-65
2023/05/30 04:34:53;;;;;;;13.33;4.57;;;;;;;21.46;100.00;101375.03;2106348;28;20183;-66
2023/05/30 04:35:53;;;;;;;9.23;4.40;;;;;;;21.31;100.00;101373.50;2115103;28;20193;-64
2023/05/30 04:36:56;;;;;;;13.60;4.20;;;;;;;21.18;100.00;101370.22;2106257;28;20273;-63
2023/05/30 04:37:58;;;;;;;15.73;5.53;;;;;;;21.05;100.00;101369.72;2111804;28;20638;-69
2023/05/30 04:38:58;;;;;;;13.93;5.27;;;;;;;20.94;100.00;101375.94;2109000;28;20209;-68
2023/05/30 04:40:00;;;;;;;11.73;5.00;;;;;;;20.79;100.00;101372.34;2109711;28;20993;-65
2023/05/30 04:41:02;;;;;;;9.70;5.20;;;;;;;20.64;100.00;101370.75;2101582;28;20268;-66
2023/05/30 04:42:04;;;;;;;8.73;5.23;;;;;;;20.46;100.00;101363.25;2108017;28;20431;-65
2023/05/30 04:43:05;;;;;;;11.30;4.77;;;;;;;20.48;100.00;101380.44;2115129;28;20178;-62